createdAt,value
2017-07-12T07:16:11.978Z,1.30
2017-07-12T07:18:40.945Z,1.50
2017-07-12T07:21:09.148Z,1.53
2017-07-12T07:23:37.248Z,1.30
2017-07-12T07:26:05.337Z,1.17
2017-07-12T07:28:33.459Z,1.37
2017-07-12T07:31:01.583Z,2.17
2017-07-12T07:33:29.684Z,3.27
2017-07-12T07:35:57.873Z,1.67
2017-07-12T07:38:26.019Z,1.37
2017-07-12T07:40:54.652Z,1.40
2017-07-12T07:43:22.780Z,1.57
2017-07-12T07:45:50.952Z,1.50
2017-07-12T07:48:19.068Z,1.80
2017-07-12T07:50:47.176Z,1.40
2017-07-12T07:53:15.378Z,1.50
2017-07-12T07:55:43.486Z,1.87
2017-07-12T07:58:11.640Z,2.00
2017-07-12T08:00:39.774Z,1.80
2017-07-12T08:03:07.968Z,1.90
2017-07-12T08:05:36.093Z,1.70
2017-07-12T08:08:04.262Z,1.97
2017-07-12T08:10:32.412Z,1.90
2017-07-12T08:13:00.528Z,1.53
2017-07-12T08:15:28.645Z,2.00
2017-07-12T08:17:56.833Z,2.10
2017-07-12T08:20:24.968Z,1.90
2017-07-12T08:22:53.079Z,1.77
2017-07-12T08:25:21.221Z,1.67
2017-07-12T08:27:49.418Z,2.17
2017-07-12T08:30:17.528Z,1.73
2017-07-12T08:32:45.681Z,1.90
2017-07-12T08:35:13.828Z,2.30
2017-07-12T08:37:41.945Z,1.70
2017-07-12T08:40:10.106Z,1.90
2017-07-12T08:42:38.241Z,1.83
2017-07-12T08:45:06.345Z,2.50
2017-07-12T08:47:34.473Z,1.87
2017-07-12T08:50:02.603Z,1.90
2017-07-12T08:52:30.711Z,2.33
2017-07-12T08:54:58.910Z,2.63
2017-07-12T08:57:27.032Z,2.30
2017-07-12T09:00:00.029Z,1.93
2017-07-12T09:02:28.236Z,1.73
2017-07-12T09:04:56.732Z,1.70
2017-07-12T09:07:24.840Z,2.20
2017-07-12T09:09:52.965Z,2.30
2017-07-12T09:12:21.114Z,1.77
2017-07-12T09:14:49.300Z,2.07
2017-07-12T09:17:17.462Z,1.77
2017-07-12T09:19:45.620Z,2.20
2017-07-12T09:22:13.796Z,2.30
2017-07-12T09:34:34.473Z,1.60
2017-07-12T09:37:02.613Z,2.20
2017-07-12T09:39:31.166Z,1.93
2017-07-12T09:41:59.267Z,1.63
2017-07-12T09:44:27.456Z,1.57
2017-07-12T09:46:55.580Z,2.27
2017-07-12T09:49:23.709Z,1.83
2017-07-12T09:51:51.864Z,1.77
2017-07-12T09:54:20.236Z,2.80
2017-07-12T09:56:48.422Z,1.70
2017-07-12T09:59:16.601Z,1.90
2017-07-12T10:01:44.729Z,2.00
2017-07-12T10:04:12.864Z,1.97
2017-07-12T10:06:40.977Z,2.03
2017-07-12T10:09:09.121Z,1.97
2017-07-12T10:11:37.288Z,1.90
2017-07-12T10:14:05.401Z,2.70
2017-07-12T10:16:33.529Z,1.80
2017-07-12T10:19:01.671Z,1.97
2017-07-12T10:21:29.807Z,2.07
2017-07-12T10:23:57.966Z,2.40
2017-07-12T10:26:26.124Z,2.30
2017-07-12T10:28:54.240Z,2.00
2017-07-12T10:31:22.341Z,1.80
2017-07-12T10:33:50.497Z,2.20
2017-07-12T10:36:18.645Z,1.90
2017-07-12T10:38:46.796Z,1.70
2017-07-12T10:41:14.918Z,1.40
2017-07-12T10:43:43.036Z,1.70
2017-07-12T10:46:11.153Z,2.30
2017-07-12T10:48:39.280Z,2.93
2017-07-12T10:51:07.388Z,2.13
2017-07-12T10:53:35.512Z,2.27
2017-07-12T10:56:03.637Z,1.77
2017-07-12T10:58:31.744Z,2.43
2017-07-12T11:00:59.850Z,2.00
2017-07-12T11:03:27.957Z,1.73
2017-07-12T11:05:56.090Z,2.00
2017-07-12T11:08:24.213Z,2.43
2017-07-12T11:10:52.380Z,2.37
2017-07-12T11:13:20.576Z,2.93
2017-07-12T11:15:48.674Z,2.07
2017-07-12T11:18:16.785Z,2.13
2017-07-12T11:20:51.366Z,1.67
2017-07-12T11:23:19.836Z,2.00
2017-07-12T11:25:47.965Z,2.30
2017-07-12T11:28:16.242Z,1.80
2017-07-12T11:30:44.348Z,2.30
2017-07-12T11:33:12.497Z,2.50
2017-07-12T11:35:40.614Z,2.20
2017-07-12T11:38:09.128Z,2.43
2017-07-12T11:40:37.277Z,2.10
2017-07-12T11:43:05.447Z,2.30
2017-07-12T11:45:33.748Z,2.10
2017-07-12T11:48:01.894Z,2.33
2017-07-12T11:50:30.058Z,3.07
2017-07-12T11:52:58.156Z,2.53
2017-07-12T11:55:26.327Z,3.00
2017-07-12T11:57:54.424Z,2.43
2017-07-12T12:00:22.542Z,2.20
2017-07-12T12:02:51.399Z,2.30
2017-07-12T12:05:19.512Z,2.30
2017-07-12T12:07:47.622Z,2.03
2017-07-12T12:10:15.736Z,2.30
2017-07-12T12:12:43.927Z,2.60
2017-07-12T12:15:12.371Z,2.30
2017-07-12T12:17:40.542Z,2.57
2017-07-12T12:20:08.677Z,2.57
2017-07-12T12:22:36.797Z,2.13
2017-07-12T12:25:04.942Z,2.13
2017-07-12T12:27:33.128Z,1.83
2017-07-12T12:30:06.149Z,2.20
2017-07-12T12:32:34.644Z,1.97
2017-07-12T12:35:02.777Z,2.10
2017-07-12T12:37:30.917Z,2.23
2017-07-12T12:39:59.042Z,1.83
2017-07-12T12:42:27.399Z,1.70
2017-07-12T12:44:55.581Z,1.90
2017-07-12T12:47:23.769Z,2.10
2017-07-12T12:49:51.872Z,2.33
2017-07-12T12:52:19.996Z,2.80
2017-07-12T12:54:48.099Z,2.40
2017-07-12T12:57:16.382Z,2.10
2017-07-12T12:59:44.544Z,1.53
2017-07-12T13:02:12.648Z,2.37
2017-07-12T13:04:45.064Z,2.10
2017-07-12T13:07:13.493Z,2.10
2017-07-12T13:09:41.633Z,2.17
2017-07-12T13:12:09.841Z,2.20
2017-07-12T13:14:38.041Z,2.60
2017-07-12T13:17:06.156Z,2.07
2017-07-12T13:19:34.285Z,2.33
2017-07-12T13:22:03.344Z,2.03
2017-07-12T13:24:31.637Z,2.30
2017-07-12T13:26:59.780Z,1.93
2017-07-12T13:29:27.913Z,2.60
2017-07-12T13:31:56.034Z,2.60
2017-07-12T13:34:24.144Z,2.03
2017-07-12T13:36:52.253Z,2.70
2017-07-12T13:39:20.384Z,2.00
2017-07-12T13:41:48.505Z,2.20
2017-07-12T13:44:17.285Z,1.40
2017-07-12T13:46:45.412Z,1.73
2017-07-12T13:49:13.533Z,2.00
2017-07-12T13:51:41.729Z,1.93
2017-07-12T13:54:09.851Z,2.10
2017-07-12T13:56:37.995Z,1.87
2017-07-12T13:59:06.192Z,2.10
2017-07-12T14:01:34.341Z,2.07
2017-07-12T14:04:02.497Z,1.70
2017-07-12T14:06:30.652Z,2.00
2017-07-12T14:08:58.774Z,2.10
2017-07-12T14:11:26.908Z,2.10
2017-07-12T14:13:55.068Z,1.60
2017-07-12T14:16:23.201Z,1.70
2017-07-12T14:18:52.048Z,1.73
2017-07-12T14:21:20.174Z,1.93
2017-07-12T14:23:48.297Z,2.87
2017-07-12T14:26:16.416Z,1.83
2017-07-12T14:28:44.557Z,2.40
2017-07-12T14:31:12.699Z,2.20
2017-07-12T14:33:40.902Z,1.70
2017-07-12T14:36:09.015Z,1.83
2017-07-12T14:38:37.198Z,1.60
2017-07-12T14:41:05.309Z,1.60
2017-07-12T14:43:33.435Z,1.97
2017-07-12T14:46:01.568Z,1.47
2017-07-12T14:49:54.209Z,1.90
2017-07-12T14:52:22.556Z,1.93
2017-07-12T14:54:50.685Z,1.50
2017-07-12T14:57:18.813Z,1.70
2017-07-12T14:59:46.928Z,2.00
2017-07-12T15:02:15.085Z,1.70
2017-07-12T15:04:43.196Z,1.67
2017-07-12T15:07:11.308Z,2.10
2017-07-12T15:09:39.445Z,1.63
2017-07-12T15:12:07.622Z,1.17
2017-07-12T15:14:35.819Z,1.20
2017-07-12T15:17:04.293Z,1.70
2017-07-12T15:19:32.361Z,1.27
2017-07-12T15:22:00.654Z,1.30
2017-07-12T15:24:28.769Z,1.30
2017-07-12T15:26:56.877Z,1.30
2017-07-12T15:29:25.008Z,1.37
2017-07-12T15:31:53.152Z,1.10
2017-07-12T15:34:21.288Z,1.40
2017-07-12T15:36:49.465Z,1.50
2017-07-12T15:39:17.572Z,1.60
2017-07-12T15:41:45.701Z,2.10
2017-07-12T15:44:13.857Z,1.23
2017-07-12T15:46:41.956Z,1.50
2017-07-12T15:49:10.126Z,1.33
2017-07-12T15:51:38.249Z,1.97
2017-07-12T15:54:06.371Z,1.80
2017-07-12T15:56:34.487Z,1.43
2017-07-12T15:59:02.620Z,1.40
2017-07-12T16:01:30.782Z,1.00
2017-07-12T16:05:23.135Z,1.37
2017-07-12T16:07:56.374Z,1.20
2017-07-12T16:10:24.967Z,1.30
2017-07-12T16:12:53.067Z,1.43
2017-07-12T16:15:21.177Z,1.50
2017-07-12T16:17:49.269Z,1.47
2017-07-12T16:20:17.376Z,1.47
2017-07-12T16:22:45.476Z,1.23
2017-07-12T16:25:13.596Z,1.13
2017-07-12T16:27:41.692Z,1.27
2017-07-12T16:30:09.824Z,1.17
2017-07-12T16:32:37.951Z,1.40
2017-07-12T16:35:06.081Z,1.53
2017-07-12T16:37:34.189Z,1.23
2017-07-12T16:40:02.307Z,1.40
2017-07-12T16:42:35.300Z,1.37
2017-07-12T16:45:03.400Z,1.23
2017-07-12T16:47:31.780Z,1.77
2017-07-12T16:49:59.912Z,1.00
2017-07-12T16:52:28.021Z,1.40
2017-07-12T16:54:56.204Z,1.00
2017-07-12T16:57:24.292Z,1.20
2017-07-12T16:59:53.028Z,1.30
2017-07-12T17:02:21.152Z,1.33
2017-07-12T17:04:49.256Z,1.43
2017-07-12T17:07:17.364Z,1.30
2017-07-12T17:09:45.844Z,1.30
2017-07-12T17:12:13.969Z,1.20
2017-07-12T17:14:42.067Z,1.30
2017-07-12T17:17:10.173Z,1.03
2017-07-12T17:19:38.268Z,1.00
2017-07-12T17:22:06.396Z,1.30
2017-07-12T17:24:34.528Z,1.33
2017-07-12T17:27:02.684Z,0.93
2017-07-12T17:29:30.776Z,1.27
2017-07-12T17:31:58.888Z,2.20
2017-07-12T17:34:26.987Z,1.23
2017-07-12T17:36:55.109Z,1.30
2017-07-12T17:39:23.276Z,1.53
2017-07-12T17:41:51.396Z,1.30
2017-07-12T17:44:19.513Z,1.47
2017-07-12T17:46:47.674Z,1.40
2017-07-12T17:49:15.802Z,1.67
2017-07-12T17:51:43.908Z,1.80
2017-07-12T17:54:12.049Z,1.30
2017-07-12T17:56:40.152Z,1.50
2017-07-12T17:59:08.260Z,1.30
2017-07-12T18:01:36.389Z,1.50
2017-07-12T18:04:04.485Z,1.17
2017-07-12T18:06:32.584Z,1.20
2017-07-12T18:09:00.685Z,1.40
2017-07-12T18:11:28.780Z,1.80
2017-07-12T18:13:56.880Z,1.77
2017-07-12T18:16:24.999Z,1.10
2017-07-12T18:18:53.126Z,1.30
2017-07-12T18:21:21.244Z,1.00
2017-07-12T18:23:49.369Z,1.10
2017-07-12T18:26:17.473Z,1.00
2017-07-12T18:28:45.572Z,1.00
2017-07-12T18:31:13.681Z,1.23
2017-07-12T18:33:41.816Z,1.70
2017-07-12T18:36:09.924Z,1.30
2017-07-12T18:38:38.036Z,1.33
2017-07-12T18:41:06.174Z,1.20
2017-07-12T18:43:34.301Z,1.33
2017-07-12T18:46:02.407Z,1.70
2017-07-12T18:48:30.541Z,1.00
2017-07-12T18:50:58.653Z,1.23
2017-07-12T18:53:26.812Z,1.20
2017-07-12T18:55:54.905Z,1.03
2017-07-12T18:58:23.025Z,1.23
2017-07-12T19:00:51.188Z,1.07
2017-07-12T19:03:19.239Z,1.03
2017-07-12T19:05:47.333Z,1.40
2017-07-12T19:08:15.428Z,1.50
2017-07-12T19:10:43.539Z,1.20
2017-07-12T19:13:11.632Z,1.30
2017-07-12T19:15:39.748Z,1.00
2017-07-12T19:18:08.893Z,0.97
2017-07-12T19:20:37.024Z,1.20
2017-07-12T19:23:05.119Z,1.30
2017-07-12T19:25:33.216Z,0.80
2017-07-12T19:28:01.329Z,1.07
2017-07-12T19:30:34.406Z,1.13
2017-07-12T19:33:02.507Z,1.10
2017-07-12T19:35:31.055Z,1.00
2017-07-12T19:37:59.179Z,0.97
2017-07-12T19:40:27.284Z,1.03
2017-07-12T19:42:55.421Z,0.80
2017-07-12T19:45:23.545Z,1.00
2017-07-12T19:47:51.661Z,1.10
2017-07-12T19:50:20.489Z,0.80
2017-07-12T19:52:48.640Z,0.80
2017-07-12T19:55:16.744Z,1.20
2017-07-12T19:57:44.861Z,1.23
2017-07-12T20:00:12.971Z,0.70
2017-07-12T20:02:41.076Z,0.90
2017-07-12T20:05:09.177Z,1.00
2017-07-12T20:07:37.282Z,0.70
2017-07-12T20:10:05.468Z,0.83
2017-07-12T20:12:33.593Z,1.13
2017-07-12T20:15:01.711Z,1.07
2017-07-12T20:17:29.812Z,0.80
2017-07-12T20:19:57.920Z,1.03
2017-07-12T20:22:26.020Z,0.80
2017-07-12T20:24:54.190Z,0.97
2017-07-12T20:27:22.224Z,0.90
2017-07-12T20:29:50.327Z,0.73
2017-07-12T20:32:18.437Z,1.00
2017-07-12T20:34:46.548Z,1.13
2017-07-12T20:37:15.081Z,0.90
2017-07-12T20:39:43.263Z,0.70
2017-07-12T20:42:11.365Z,0.77
2017-07-12T20:44:39.476Z,1.00
2017-07-12T20:47:07.573Z,2.00
2017-07-12T20:49:35.672Z,0.80
2017-07-12T20:52:03.788Z,1.00
2017-07-12T20:54:31.908Z,1.40
2017-07-12T20:57:00.016Z,0.80
2017-07-12T20:59:28.228Z,1.03
2017-07-12T21:01:56.327Z,0.77
2017-07-12T21:04:24.865Z,0.97
2017-07-12T21:06:53.080Z,0.93
2017-07-12T21:09:21.212Z,0.93
2017-07-12T21:11:49.334Z,0.70
2017-07-12T21:14:17.448Z,0.63
2017-07-12T21:16:45.561Z,1.30
2017-07-12T21:19:13.693Z,1.00
2017-07-12T21:21:41.783Z,0.70
2017-07-12T21:24:09.884Z,0.80
2017-07-12T21:26:37.981Z,0.60
2017-07-12T21:29:06.532Z,0.80
2017-07-12T21:31:35.682Z,0.70
2017-07-12T21:34:03.768Z,0.57
2017-07-12T21:36:31.864Z,0.70
2017-07-12T21:39:00.041Z,0.57
2017-07-12T21:41:28.158Z,0.70
2017-07-12T21:43:56.266Z,1.13
2017-07-12T21:46:24.421Z,0.70
2017-07-12T21:48:52.520Z,0.80
2017-07-12T21:51:20.632Z,1.03
2017-07-12T21:54:05.945Z,0.80
2017-07-12T21:56:51.083Z,0.70
2017-07-12T21:59:36.291Z,1.27
2017-07-12T22:02:21.286Z,0.60
2017-07-12T22:05:06.357Z,0.57
2017-07-12T22:07:51.268Z,0.60
2017-07-12T22:10:36.685Z,0.70
2017-07-12T22:13:21.928Z,0.70
2017-07-12T22:16:07.294Z,0.50
2017-07-12T22:18:52.388Z,0.60
2017-07-12T22:21:37.890Z,0.80
2017-07-12T22:24:22.860Z,0.50
2017-07-12T22:27:08.096Z,0.73
2017-07-12T22:29:53.248Z,0.77
2017-07-12T22:32:38.536Z,0.63
2017-07-12T22:35:23.452Z,0.57
2017-07-12T22:37:57.252Z,0.67
2017-07-12T22:40:30.921Z,0.70
2017-07-12T22:43:04.610Z,0.70
2017-07-12T22:45:32.703Z,0.53
2017-07-12T22:48:00.822Z,0.50
2017-07-12T22:50:28.942Z,0.80
2017-07-12T22:52:57.060Z,0.67
2017-07-12T22:55:25.177Z,0.60
2017-07-12T22:57:53.294Z,0.77
2017-07-12T23:00:21.413Z,0.60
2017-07-12T23:02:49.537Z,0.67
2017-07-12T23:05:17.648Z,0.80
2017-07-12T23:07:45.800Z,0.30
2017-07-12T23:10:13.906Z,0.47
2017-07-12T23:12:42.021Z,0.50
2017-07-12T23:15:10.108Z,0.53
2017-07-12T23:17:38.212Z,0.50
2017-07-12T23:20:06.322Z,0.60
2017-07-12T23:22:34.447Z,0.63
2017-07-12T23:25:02.564Z,0.60
2017-07-12T23:27:30.677Z,0.50
2017-07-12T23:29:58.764Z,0.50
2017-07-12T23:32:26.882Z,0.40
2017-07-12T23:34:55.062Z,0.40
2017-07-12T23:37:23.177Z,0.50
2017-07-12T23:39:51.280Z,0.63
2017-07-12T23:42:19.396Z,0.40
2017-07-12T23:44:47.531Z,0.50
2017-07-12T23:47:15.655Z,0.57
2017-07-12T23:49:43.782Z,0.70
2017-07-12T23:52:16.639Z,0.63
2017-07-12T23:54:44.724Z,0.50
2017-07-12T23:57:13.294Z,0.43
2017-07-12T23:59:41.372Z,0.60
